VK3GY-13 Weather Reports


time (UTC)temp
C
wind
direction
speed
KPH
gust
KPH
rain 1hr
cm
rain 24hr
cm
rain mn
cm
humidity
%
barometer
mb
20190420030004 28 134 4.8 12.9 0.00 0.03 0.03 36 1022.3
20190420024503 28 105 4.8 12.9 0.00 0.03 0.03 36 1022.5
20190420023003 27 128 8.0 14.5 0.00 0.03 0.03 36 1022.8
20190420021504 26 141 8.0 14.5 0.00 0.03 0.03 38 1023.0
20190420020004 26 116 6.4 14.5 0.00 0.03 0.03 39 1023.2
20190420014504 25 127 4.8 12.9 0.00 0.03 0.03 43 1023.5
20190420013004 23 135 4.8 12.9 0.00 0.03 0.03 46 1023.8
20190420011504 22 139 4.8 14.5 0.00 0.03 0.03 48 1024.0
20190420010003 21 114 8.0 14.5 0.00 0.03 0.03 52 1024.2
20190420004504 20 114 8.0 14.5 0.00 0.03 0.03 59 1024.3
20190420003003 19 130 8.0 16.1 0.00 0.03 0.03 65 1024.5
20190420001505 18 140 8.0 12.9 0.00 0.03 0.03 69 1024.6
20190420000004 16 120 8.0 16.1 0.00 0.03 0.03 79 1024.8
20190419234503 15 118 9.7 14.5 0.00 0.03 0.03 89 1024.8
20190419233004 13 129 9.7 14.5 0.00 0.03 0.03 94 1025.0
20190419231503 12 127 6.4 11.3 0.00 0.03 0.03 95 1025.2
20190419230003 11 122 4.8 11.3 0.00 0.03 0.03 95 1025.3
20190419224503 11 103 0.0 1.6 0.00 0.03 0.03 96 1025.3
20190419223003 10 118 0.0 1.6 0.00 0.03 0.03 96 1025.3
20190419221504 9 145 0.0 1.6 0.00 0.03 0.03 95 1025.5
20190419220004 9 146 0.0 1.6 0.00 0.03 0.03 95 1025.4
20190419214504 9 130 0.0 0.0 0.03 0.03 0.03 95 1025.4
20190419213004 9 126 0.0 0.0 0.03 0.03 0.03 95 1025.3
20190419211503 10 115 0.0 0.0 0.03 0.03 0.03 95 1025.2
20190419210004 10 105 0.0 0.0 0.03 0.03 0.03 94 1025.2
20190419204504 10 106 0.0 11.3 0.00 0.00 0.00 94 1025.0
20190419203004 11 112 3.2 12.9 0.00 0.00 0.00 95 1024.9
20190419201504 11 115 3.2 14.5 0.00 0.00 0.00 94 1024.8
20190419200003 11 120 4.8 16.1 0.00 0.00 0.00 95 1024.8
20190419194504 12 130 1.6 14.5 0.00 0.00 0.00 94 1024.8
20190419193004 12 114 9.7 16.1 0.00 0.00 0.00 94 1024.8
20190419191504 12 102 4.8 12.9 0.00 0.00 0.00 94 1024.8
20190419190003 12 129 3.2 12.9 0.00 0.00 0.00 94 1024.7
20190419184504 12 106 1.6 11.3 0.00 0.00 0.00 94 1024.7
20190419183004 12 108 4.8 11.3 0.00 0.00 0.00 94 1024.6
20190419181504 12 113 1.6 19.3 0.00 0.00 0.00 94 1024.6
20190419180004 12 112 4.8 11.3 0.00 0.00 0.00 94 1024.6
20190419174504 12 86 4.8 16.1 0.00 0.00 0.00 94 1024.7
20190419173004 12 128 0.0 11.3 0.00 0.00 0.00 94 1024.7
20190419171504 12 106 1.6 12.9 0.00 0.00 0.00 93 1024.7
20190419170004 12 102 1.6 12.9 0.00 0.00 0.00 93 1024.7
20190419164503 12 108 8.0 12.9 0.00 0.00 0.00 93 1024.8
20190419163003 12 114 4.8 14.5 0.00 0.00 0.00 93 1024.9
20190419161504 12 109 3.2 9.7 0.00 0.00 0.00 92 1024.9
20190419160004 12 134 3.2 11.3 0.00 0.00 0.00 92 1025.1
20190419154503 12 124 0.0 0.0 0.00 0.00 0.00 92 1025.2
20190419153003 12 105 0.0 0.0 0.00 0.00 0.00 92 1025.3
20190419151504 12 105 0.0 0.0 0.00 0.00 0.00 92 1025.4
20190419150004 12 105 0.0 0.0 0.00 0.00 0.00 92 1025.5
20190419144503 13 116 0.0 0.0 0.00 0.00 0.00 92 1025.5
20190419143004 13 105 0.0 12.9 0.00 0.00 0.00 92 1025.8
20190419141503 13 107 3.2 14.5 0.00 0.00 0.00 92 1025.8
20190419140003 13 114 3.2 12.9 0.00 0.00 0.00 91 1025.9
20190419134504 13 110 6.4 12.9 0.00 0.00 0.00 91 1026.0
20190419133004 13 110 4.8 16.1 0.00 0.00 0.00 91 1026.1
20190419131504 13 116 4.8 16.1 0.00 0.00 0.00 90 1026.2
20190419130003 13 117 4.8 14.5 0.00 0.00 0.00 90 1026.4
20190419124503 13 122 8.0 16.1 0.00 0.00 0.00 90 1026.4
20190419123003 13 125 6.4 16.1 0.00 0.00 0.00 89 1026.5
20190419121504 13 114 9.7 19.3 0.00 0.00 0.00 88 1026.7
20190419120004 13 128 9.7 24.1 0.00 0.00 0.00 88 1026.7
20190419114504 13 128 9.7 19.3 0.00 0.00 0.00 87 1026.7
20190419113005 14 117 8.0 16.1 0.00 0.00 0.00 86 1026.7
20190419111504 14 126 8.0 19.3 0.00 0.00 0.00 85 1026.7
20190419110005 14 110 8.0 19.3 0.00 0.00 0.00 84 1026.6
20190419104504 14 125 8.0 19.3 0.00 0.00 0.00 83 1026.5
20190419103006 15 129 8.0 20.9 0.00 0.00 0.00 82 1026.5
20190419101504 15 116 9.7 19.3 0.00 0.00 0.00 81 1026.4
20190419100004 15 120 12.9 24.1 0.00 0.00 0.00 79 1026.5
20190419094504 15 109 11.3 25.7 0.00 0.00 0.00 76 1026.5
20190419093004 16 127 9.7 27.4 0.00 0.00 0.00 74 1026.5
20190419090004 16 118 9.7 25.7 0.00 0.00 0.00 71 1026.2
20190419084503 17 111 9.7 25.7 0.00 0.00 0.00 69 1026.1
20190419083004 17 114 14.5 19.3 0.00 0.00 0.00 67 1026.0
20190419081504 17 114 11.3 20.9 0.00 0.00 0.00 64 1025.9
20190419080004 18 119 9.7 20.9 0.00 0.00 0.00 60 1025.6
20190419074505 18 129 9.7 19.3 0.00 0.00 0.00 55 1025.3
20190419073004 19 128 9.7 16.1 0.00 0.00 0.00 51 1025.2
20190419071504 20 131 8.0 14.5 0.00 0.00 0.00 49 1025.1
20190419070005 21 114 11.3 19.3 0.00 0.00 0.00 46 1024.9
20190419064504 21 115 8.0 19.3 0.00 0.00 0.00 45 1024.9
20190419063004 22 131 9.7 19.3 0.00 0.00 0.00 44 1024.9
20190419061504 22 115 9.7 19.3 0.00 0.00 0.00 43 1024.9
20190419060004 23 123 9.7 16.1 0.00 0.00 0.00 42 1025.0
20190419054504 23 133 8.0 19.3 0.00 0.00 0.00 42 1025.1
20190419053004 23 106 9.7 16.1 0.00 0.00 0.00 42 1025.1
20190419051504 23 101 8.0 16.1 0.00 0.00 0.00 41 1025.1
20190419050005 23 136 9.7 16.1 0.00 0.00 0.00 41 1025.1
20190419044504 23 126 11.3 19.3 0.00 0.00 0.00 41 1025.1
20190419043004 24 125 8.0 24.1 0.00 0.00 0.00 41 1025.2
20190419041504 24 101 9.7 16.1 0.00 0.00 0.00 41 1025.2
20190419040004 24 137 11.3 19.3 0.00 0.00 0.00 42 1025.4
20190419034504 24 127 9.7 19.3 0.00 0.00 0.00 43 1025.4
20190419033004 23 122 8.0 19.3 0.00 0.00 0.00 44 1025.6
20190419031504 23 119 9.7 19.3 0.00 0.00 0.00 45 1025.8